Airfield :
LOGIN :

Register | Disclaimer

   EN    FR    IT 

 










Legend :    VFR   Marginal VFR   IFR   Intensive IFR   Very Intensive IFR
Visi :
Ceiling :
>= 8 km
>= 3000ft
5 to 8 km
1000 to 3000 ft
1500m to 5 km
500 to 1000 ft
800 to 1500m
200 to 500 ft
< 800m
< 200 ft
Symbols :   Thunderstorms  Fog  Heavy snow  Heavy precipitations  Wind > 20 kt
SIGMETs :     Misc.  Thunderstorms  Icing  Turbulence  Mountain Waves  Volcanic Ashes






- Airport Elevation : 856 ft
- IATA code : VGO


LEVX - Vigo Peinador

CURRENT METAR :
  • 170500Z 20006KT 160V230 0200 R19/1900N R01/0550N BCFG -RA VV001 08/08 Q1013 NOSIG

EXPIRED METARs :
  • 170430Z 19005KT 160V230 0300 R19/1000D R01/0450N BCFG -RA VV001 08/08 Q1014 NOSIG
  • 170400Z 19007KT 140V230 0700 R19/P2000 R01/1400N BCFG -RA VV001 08/08 Q1014 NOSIG
  • 170330Z 19006KT 140V230 4000 BCFG BKN003 BKN014 08/08 Q1014 TEMPO 1500
  • 170300Z 19005KT 130V240 4000 -RA BCFG VV001 08/08 Q1014 TEMPO 1500
  • 170230Z 18005KT 140V230 0500 R19/P2000 R01/1000U -RA BCFG VV001 08/08 Q1014 NOSIG

TAF TAF LEVX
Valid from the 17 at 06:00 until the 18 at 06:00 UTC


170500Z 1706/1806 32009KT 9999 SCT015 SCT025 TX12/1713Z TN06/1805Z
TEMPO 1706/1710 3000 -RADZ BR BKN010
TEMPO 1706/1710 1200 BCFG BKN005
TEMPO 1706/1709 0800 BCFG BKN002
PROB40
TEMPO 1706/1708 0350 FG VV001
PROB30
TEMPO 1710/1718 RA SHRA SCT025TCU
TEMPO 1718/1803 3000 -RADZ BR



MET'MAP, your aeronautical weather chart ! - Copyright ORBIFLY December 2007 - Disclaimer

ORBIFLY MET'MAP TEAM :

Programming & Development : Alexandra Zaïnal
Concept & Development : Baudouin d'Aumeries
Co-Development & Prog : Marc-Olivier Méhu
Technical & hardware support : Manuel Goepfert

Contact : metmap@orbifly.com




SOURCES & CREDITS :

   NOAA